sensor_id;sensor_type;location;lat;lon;timestamp;pressure;altitude;pressure_sealevel;temperature;humidity
55315;BME280;41619;42.816;23.226;2023-06-10T00:01:19;95121.91;;;16.58;80.38
55315;BME280;41619;42.816;23.226;2023-06-10T00:03:44;95118.34;;;16.57;80.13
55315;BME280;41619;42.816;23.226;2023-06-10T00:06:09;95122.31;;;16.56;80.27
55315;BME280;41619;42.816;23.226;2023-06-10T00:08:35;95123.09;;;16.57;80.43
55315;BME280;41619;42.816;23.226;2023-06-10T00:11:02;95116.38;;;16.58;80.45
55315;BME280;41619;42.816;23.226;2023-06-10T00:13:28;95112.41;;;16.59;80.13
55315;BME280;41619;42.816;23.226;2023-06-10T00:15:53;95118.31;;;16.61;80.35
55315;BME280;41619;42.816;23.226;2023-06-10T00:18:18;95113.56;;;16.61;80.51
55315;BME280;41619;42.816;23.226;2023-06-10T00:20:47;95109.59;;;16.62;80.40
55315;BME280;41619;42.816;23.226;2023-06-10T00:23:14;95115.91;;;16.63;80.63
55315;BME280;41619;42.816;23.226;2023-06-10T00:25:39;95116.28;;;16.65;80.76
55315;BME280;41619;42.816;23.226;2023-06-10T00:28:05;95124.97;;;16.67;80.51
55315;BME280;41619;42.816;23.226;2023-06-10T00:30:30;95127.72;;;16.67;80.67
55315;BME280;41619;42.816;23.226;2023-06-10T00:32:56;95130.09;;;16.69;80.70
55315;BME280;41619;42.816;23.226;2023-06-10T00:35:21;95132.06;;;16.68;80.65
55315;BME280;41619;42.816;23.226;2023-06-10T00:37:47;95129.72;;;16.67;80.58
55315;BME280;41619;42.816;23.226;2023-06-10T00:40:12;95130.88;;;16.65;80.64
55315;BME280;41619;42.816;23.226;2023-06-10T00:42:38;95141.16;;;16.65;80.85
55315;BME280;41619;42.816;23.226;2023-06-10T00:45:04;95137.59;;;16.64;80.66
55315;BME280;41619;42.816;23.226;2023-06-10T00:47:30;95140.78;;;16.63;80.41
55315;BME280;41619;42.816;23.226;2023-06-10T00:49:56;95140.78;;;16.63;80.64
55315;BME280;41619;42.816;23.226;2023-06-10T00:52:22;95138.81;;;16.63;80.69
55315;BME280;41619;42.816;23.226;2023-06-10T00:54:49;95138.03;;;16.63;80.58
55315;BME280;41619;42.816;23.226;2023-06-10T00:57:15;95147.09;;;16.63;80.49
55315;BME280;41619;42.816;23.226;2023-06-10T00:59:41;95140.78;;;16.63;80.68
55315;BME280;41619;42.816;23.226;2023-06-10T01:02:08;95141.97;;;16.62;80.83
55315;BME280;41619;42.816;23.226;2023-06-10T01:04:34;95134.88;;;16.61;80.90
55315;BME280;41619;42.816;23.226;2023-06-10T01:10:01;95134.09;;;16.60;80.73
55315;BME280;41619;42.816;23.226;2023-06-10T01:12:39;95138.06;;;16.59;80.99
55315;BME280;41619;42.816;23.226;2023-06-10T01:15:07;95142.81;;;16.59;80.99
55315;BME280;41619;42.816;23.226;2023-06-10T01:17:37;95142.41;;;16.60;81.13
55315;BME280;41619;42.816;23.226;2023-06-10T01:20:16;95148.28;;;16.62;81.14
55315;BME280;41619;42.816;23.226;2023-06-10T01:22:42;95142.41;;;16.60;81.02
55315;BME280;41619;42.816;23.226;2023-06-10T01:25:08;95135.31;;;16.59;81.35
55315;BME280;41619;42.816;23.226;2023-06-10T01:27:36;95131.81;;;16.55;80.97
55315;BME280;41619;42.816;23.226;2023-06-10T01:30:09;95136.97;;;16.50;80.99
55315;BME280;41619;42.816;23.226;2023-06-10T01:32:44;95125.19;;;16.46;81.07
55315;BME280;41619;42.816;23.226;2023-06-10T01:35:10;95120.06;;;16.44;81.21
55315;BME280;41619;42.816;23.226;2023-06-10T01:37:38;95118.09;;;16.45;81.38
55315;BME280;41619;42.816;23.226;2023-06-10T01:40:06;95114.56;;;16.44;81.37
55315;BME280;41619;42.816;23.226;2023-06-10T01:42:33;95114.56;;;16.44;81.39
55315;BME280;41619;42.816;23.226;2023-06-10T01:44:58;95115.75;;;16.43;81.52
55315;BME280;41619;42.816;23.226;2023-06-10T01:47:24;95108.25;;;16.44;81.83
55315;BME280;41619;42.816;23.226;2023-06-10T01:49:49;95119.28;;;16.44;81.58
55315;BME280;41619;42.816;23.226;2023-06-10T01:52:15;95110.63;;;16.42;81.62
55315;BME280;41619;42.816;23.226;2023-06-10T01:54:40;95125.63;;;16.41;81.71
55315;BME280;41619;42.816;23.226;2023-06-10T01:57:06;95118.56;;;16.40;81.99
55315;BME280;41619;42.816;23.226;2023-06-10T01:59:31;95113.03;;;16.36;81.85
55315;BME280;41619;42.816;23.226;2023-06-10T02:01:57;95112.66;;;16.38;81.73
55315;BME280;41619;42.816;23.226;2023-06-10T02:04:22;95111.81;;;16.41;81.95
55315;BME280;41619;42.816;23.226;2023-06-10T02:06:48;95109.06;;;16.41;81.83
55315;BME280;41619;42.816;23.226;2023-06-10T02:09:13;95101.59;;;16.38;82.04
55315;BME280;41619;42.816;23.226;2023-06-10T02:11:39;95104.75;;;16.36;81.97
55315;BME280;41619;42.816;23.226;2023-06-10T02:14:05;95096.09;;;16.34;81.84
55315;BME280;41619;42.816;23.226;2023-06-10T02:16:30;95087.84;;;16.30;82.07
55315;BME280;41619;42.816;23.226;2023-06-10T02:18:56;95092.63;;;16.26;82.08
55315;BME280;41619;42.816;23.226;2023-06-10T02:21:22;95094.31;;;16.17;82.09
55315;BME280;41619;42.816;23.226;2023-06-10T02:23:48;95104.22;;;16.11;82.25
55315;BME280;41619;42.816;23.226;2023-06-10T02:26:13;95118.03;;;16.11;82.14
55315;BME280;41619;42.816;23.226;2023-06-10T02:28:42;95117.25;;;16.10;82.37
55315;BME280;41619;42.816;23.226;2023-06-10T02:31:07;95113.66;;;16.13;82.53
55315;BME280;41619;42.816;23.226;2023-06-10T02:33:33;95108.88;;;16.17;82.32
55315;BME280;41619;42.816;23.226;2023-06-10T02:35:59;95115.59;;;16.20;82.84
55315;BME280;41619;42.816;23.226;2023-06-10T02:38:24;95112.84;;;16.20;82.73
55315;BME280;41619;42.816;23.226;2023-06-10T02:40:50;95116.34;;;16.24;82.79
55315;BME280;41619;42.816;23.226;2023-06-10T02:43:15;95112.75;;;16.27;82.77
55315;BME280;41619;42.816;23.226;2023-06-10T02:45:40;95115.09;;;16.28;82.82
55315;BME280;41619;42.816;23.226;2023-06-10T02:48:06;95107.19;;;16.30;82.83
55315;BME280;41619;42.816;23.226;2023-06-10T02:50:31;95106.78;;;16.32;82.79
55315;BME280;41619;42.816;23.226;2023-06-10T02:52:56;95106.78;;;16.32;82.87
55315;BME280;41619;42.816;23.226;2023-06-10T02:55:22;95100.44;;;16.35;82.87
55315;BME280;41619;42.816;23.226;2023-06-10T02:57:51;95096.47;;;16.36;82.71
55315;BME280;41619;42.816;23.226;2023-06-10T03:00:17;95102.81;;;16.37;82.78
55315;BME280;41619;42.816;23.226;2023-06-10T03:02:45;95112.25;;;16.39;82.78
55315;BME280;41619;42.816;23.226;2023-06-10T03:05:11;95114.63;;;16.37;83.04
55315;BME280;41619;42.816;23.226;2023-06-10T03:07:38;95120.16;;;16.37;82.87
55315;BME280;41619;42.816;23.226;2023-06-10T03:10:05;95126.06;;;16.35;82.91
55315;BME280;41619;42.816;23.226;2023-06-10T03:12:31;95128.03;;;16.35;82.83
55315;BME280;41619;42.816;23.226;2023-06-10T03:14:56;95122.91;;;16.37;83.05
55315;BME280;41619;42.816;23.226;2023-06-10T03:17:22;95127.25;;;16.38;83.01
55315;BME280;41619;42.816;23.226;2023-06-10T03:19:47;95128.03;;;16.39;82.89
55315;BME280;41619;42.816;23.226;2023-06-10T03:22:14;95122.50;;;16.39;83.11
55315;BME280;41619;42.816;23.226;2023-06-10T03:24:40;95127.63;;;16.40;83.08
55315;BME280;41619;42.816;23.226;2023-06-10T03:27:09;95127.63;;;16.40;82.91
55315;BME280;41619;42.816;23.226;2023-06-10T03:29:36;95126.84;;;16.40;82.88
55315;BME280;41619;42.816;23.226;2023-06-10T03:32:02;95126.41;;;16.41;83.00
55315;BME280;41619;42.816;23.226;2023-06-10T03:34:27;95122.88;;;16.41;82.63
55315;BME280;41619;42.816;23.226;2023-06-10T03:36:53;95120.13;;;16.41;82.63
55315;BME280;41619;42.816;23.226;2023-06-10T03:39:18;95122.88;;;16.41;82.68
55315;BME280;41619;42.816;23.226;2023-06-10T03:41:43;95117.72;;;16.43;82.88
55315;BME280;41619;42.816;23.226;2023-06-10T03:44:09;95127.56;;;16.44;83.11
55315;BME280;41619;42.816;23.226;2023-06-10T03:46:34;95127.16;;;16.45;82.95
55315;BME280;41619;42.816;23.226;2023-06-10T03:49:00;95116.13;;;16.45;82.79
55315;BME280;41619;42.816;23.226;2023-06-10T03:51:29;95112.94;;;16.47;82.75
55315;BME280;41619;42.816;23.226;2023-06-10T03:53:54;95114.50;;;16.48;83.04
55315;BME280;41619;42.816;23.226;2023-06-10T03:56:20;95121.59;;;16.49;82.95
55315;BME280;41619;42.816;23.226;2023-06-10T03:58:45;95121.19;;;16.50;82.76
55315;BME280;41619;42.816;23.226;2023-06-10T04:01:10;95115.66;;;16.50;83.06
55315;BME280;41619;42.816;23.226;2023-06-10T04:03:38;95113.25;;;16.52;82.94
55315;BME280;41619;42.816;23.226;2023-06-10T04:06:04;95111.69;;;16.55;83.03
55315;BME280;41619;42.816;23.226;2023-06-10T04:08:30;95115.59;;;16.57;82.90
55315;BME280;41619;42.816;23.226;2023-06-10T04:10:56;95116.75;;;16.60;82.82
55315;BME280;41619;42.816;23.226;2023-06-10T04:13:23;95124.63;;;16.61;83.05
55315;BME280;41619;42.816;23.226;2023-06-10T04:15:48;95119.88;;;16.62;82.87
55315;BME280;41619;42.816;23.226;2023-06-10T04:18:13;95119.06;;;16.65;82.50
55315;BME280;41619;42.816;23.226;2023-06-10T04:20:39;95124.19;;;16.67;82.97
55315;BME280;41619;42.816;23.226;2023-06-10T04:23:04;95127.31;;;16.69;82.83
55315;BME280;41619;42.816;23.226;2023-06-10T04:25:29;95125.28;;;16.73;82.86
55315;BME280;41619;42.816;23.226;2023-06-10T04:27:55;95122.50;;;16.76;82.94
55315;BME280;41619;42.816;23.226;2023-06-10T04:30:20;95120.06;;;16.82;82.70
55315;BME280;41619;42.816;23.226;2023-06-10T04:32:47;95116.47;;;16.85;82.79
55315;BME280;41619;42.816;23.226;2023-06-10T04:35:12;95114.84;;;16.87;82.36
55315;BME280;41619;42.816;23.226;2023-06-10T04:37:39;95110.91;;;16.88;82.53
55315;BME280;41619;42.816;23.226;2023-06-10T04:40:05;95118.78;;;16.90;82.32
55315;BME280;41619;42.816;23.226;2023-06-10T04:42:31;95117.56;;;16.91;81.96
55315;BME280;41619;42.816;23.226;2023-06-10T04:44:56;95127.81;;;16.94;82.12
55315;BME280;41619;42.816;23.226;2023-06-10T04:47:22;95119.91;;;16.96;82.16
55315;BME280;41619;42.816;23.226;2023-06-10T04:49:48;95116.31;;;16.99;81.84
55315;BME280;41619;42.816;23.226;2023-06-10T04:52:13;95122.63;;;17.00;81.66
55315;BME280;41619;42.816;23.226;2023-06-10T04:54:39;95114.69;;;17.02;81.43
55315;BME280;41619;42.816;23.226;2023-06-10T04:57:05;95111.09;;;17.05;81.25
55315;BME280;41619;42.816;23.226;2023-06-10T04:59:31;95105.50;;;17.08;81.29
55315;BME280;41619;42.816;23.226;2023-06-10T05:01:57;95115.75;;;17.11;81.38
55315;BME280;41619;42.816;23.226;2023-06-10T05:04:22;95111.78;;;17.12;81.11
55315;BME280;41619;42.816;23.226;2023-06-10T05:06:48;95114.91;;;17.14;80.84
55315;BME280;41619;42.816;23.226;2023-06-10T05:09:13;95118.47;;;17.15;80.65
55315;BME280;41619;42.816;23.226;2023-06-10T05:11:38;95118.47;;;17.15;80.63
55315;BME280;41619;42.816;23.226;2023-06-10T05:14:04;95119.19;;;17.19;80.55
55315;BME280;41619;42.816;23.226;2023-06-10T05:16:30;95118.72;;;17.24;80.43
55315;BME280;41619;42.816;23.226;2023-06-10T05:18:55;95119.84;;;17.30;80.47
55315;BME280;41619;42.816;23.226;2023-06-10T05:21:21;95121.34;;;17.35;80.25
55315;BME280;41619;42.816;23.226;2023-06-10T05:23:46;95130.75;;;17.41;80.41
55315;BME280;41619;42.816;23.226;2023-06-10T05:26:12;95128.66;;;17.48;80.07
55315;BME280;41619;42.816;23.226;2023-06-10T05:28:37;95131.31;;;17.55;79.96
55315;BME280;41619;42.816;23.226;2023-06-10T05:31:03;95128.84;;;17.61;79.61
55315;BME280;41619;42.816;23.226;2023-06-10T05:33:28;95131.56;;;17.68;79.36
55315;BME280;41619;42.816;23.226;2023-06-10T05:35:53;95131.44;;;17.75;79.04
55315;BME280;41619;42.816;23.226;2023-06-10T05:38:19;95130.19;;;17.80;78.88
55315;BME280;41619;42.816;23.226;2023-06-10T05:40:45;95128.53;;;17.86;78.56
55315;BME280;41619;42.816;23.226;2023-06-10T05:43:11;95127.63;;;17.93;78.57
55315;BME280;41619;42.816;23.226;2023-06-10T05:45:37;95125.19;;;17.95;78.59
55315;BME280;41619;42.816;23.226;2023-06-10T05:48:03;95123.63;;;17.94;78.74
55315;BME280;41619;42.816;23.226;2023-06-10T05:50:28;95125.19;;;17.95;78.46
55315;BME280;41619;42.816;23.226;2023-06-10T05:52:54;95121.66;;;17.94;78.58
55315;BME280;41619;42.816;23.226;2023-06-10T05:55:20;95130.81;;;17.91;78.60
55315;BME280;41619;42.816;23.226;2023-06-10T05:57:45;95139.47;;;17.93;78.58
55315;BME280;41619;42.816;23.226;2023-06-10T06:00:11;95144.16;;;17.96;78.91
55315;BME280;41619;42.816;23.226;2023-06-10T06:02:36;95146.94;;;17.96;78.92
55315;BME280;41619;42.816;23.226;2023-06-10T06:05:02;95142.22;;;17.93;78.69
55315;BME280;41619;42.816;23.226;2023-06-10T06:07:27;95146.50;;;17.98;78.56
55315;BME280;41619;42.816;23.226;2023-06-10T06:09:53;95146.03;;;18.03;78.67
55315;BME280;41619;42.816;23.226;2023-06-10T06:12:18;95146.34;;;18.08;78.46
55315;BME280;41619;42.816;23.226;2023-06-10T06:14:44;95147.41;;;18.14;78.35
55315;BME280;41619;42.816;23.226;2023-06-10T06:17:10;95140.97;;;18.21;78.07
55315;BME280;41619;42.816;23.226;2023-06-10T06:19:35;95140.44;;;18.30;78.32
55315;BME280;41619;42.816;23.226;2023-06-10T06:22:01;95145.84;;;18.37;77.92
55315;BME280;41619;42.816;23.226;2023-06-10T06:24:26;95142.53;;;18.45;77.77
55315;BME280;41619;42.816;23.226;2023-06-10T06:26:51;95146.72;;;18.54;77.38
55315;BME280;41619;42.816;23.226;2023-06-10T06:29:17;95141.06;;;18.61;77.15
55315;BME280;41619;42.816;23.226;2023-06-10T06:31:43;95138.19;;;18.68;77.05
55315;BME280;41619;42.816;23.226;2023-06-10T06:34:08;95138.81;;;18.75;76.68
55315;BME280;41619;42.816;23.226;2023-06-10T06:36:34;95144.94;;;18.87;76.48
55315;BME280;41619;42.816;23.226;2023-06-10T06:38:59;95136.03;;;18.95;76.06
55315;BME280;41619;42.816;23.226;2023-06-10T06:41:27;95136.28;;;19.04;75.68
55315;BME280;41619;42.816;23.226;2023-06-10T06:43:55;95134.47;;;19.14;75.21
55315;BME280;41619;42.816;23.226;2023-06-10T06:46:21;95133.47;;;19.24;74.86
55315;BME280;41619;42.816;23.226;2023-06-10T06:48:47;95125.72;;;19.35;74.43
55315;BME280;41619;42.816;23.226;2023-06-10T06:51:13;95127.38;;;19.49;73.89
55315;BME280;41619;42.816;23.226;2023-06-10T06:53:39;95119.97;;;19.62;73.72
55315;BME280;41619;42.816;23.226;2023-06-10T06:56:10;95119.22;;;19.78;73.26
55315;BME280;41619;42.816;23.226;2023-06-10T06:58:35;95122.94;;;19.88;72.80
55315;BME280;41619;42.816;23.226;2023-06-10T07:01:00;95121.91;;;19.98;72.60
55315;BME280;41619;42.816;23.226;2023-06-10T07:03:26;95116.16;;;20.05;72.15
55315;BME280;41619;42.816;23.226;2023-06-10T07:05:51;95110.00;;;20.14;71.91
55315;BME280;41619;42.816;23.226;2023-06-10T07:08:17;95115.63;;;20.26;71.92
55315;BME280;41619;42.816;23.226;2023-06-10T07:10:42;95114.47;;;20.40;71.72
55315;BME280;41619;42.816;23.226;2023-06-10T07:13:07;95116.56;;;20.52;71.58
55315;BME280;41619;42.816;23.226;2023-06-10T07:15:33;95115.50;;;20.63;71.03
55315;BME280;41619;42.816;23.226;2023-06-10T07:17:58;95120.22;;;20.78;70.93
55315;BME280;41619;42.816;23.226;2023-06-10T07:20:24;95115.41;;;20.95;71.20
55315;BME280;41619;42.816;23.226;2023-06-10T07:22:49;95109.66;;;21.02;70.77
55315;BME280;41619;42.816;23.226;2023-06-10T07:25:15;95110.31;;;21.06;70.23
55315;BME280;41619;42.816;23.226;2023-06-10T07:27:41;95106.44;;;21.16;69.80
55315;BME280;41619;42.816;23.226;2023-06-10T07:30:07;95110.84;;;21.30;69.67
55315;BME280;41619;42.816;23.226;2023-06-10T07:32:33;95101.63;;;21.46;69.32
55315;BME280;41619;42.816;23.226;2023-06-10T07:34:59;95095.69;;;21.57;68.66
55315;BME280;41619;42.816;23.226;2023-06-10T07:37:24;95100.50;;;21.69;68.72
55315;BME280;41619;42.816;23.226;2023-06-10T07:39:49;95095.72;;;21.82;68.46
55315;BME280;41619;42.816;23.226;2023-06-10T07:42:15;95096.13;;;21.93;67.89
55315;BME280;41619;42.816;23.226;2023-06-10T07:44:40;95092.78;;;21.98;67.22
55315;BME280;41619;42.816;23.226;2023-06-10T07:47:06;95088.34;;;22.01;66.38
55315;BME280;41619;42.816;23.226;2023-06-10T07:49:31;95095.38;;;22.05;65.69
55315;BME280;41619;42.816;23.226;2023-06-10T07:51:57;95093.91;;;22.14;64.87
55315;BME280;41619;42.816;23.226;2023-06-10T07:54:22;95084.41;;;22.24;64.72
55315;BME280;41619;42.816;23.226;2023-06-10T07:56:48;95079.03;;;22.29;64.34
55315;BME280;41619;42.816;23.226;2023-06-10T07:59:14;95076.03;;;22.36;64.07
55315;BME280;41619;42.816;23.226;2023-06-10T08:01:40;95078.41;;;22.47;63.76
55315;BME280;41619;42.816;23.226;2023-06-10T08:04:06;95074.03;;;22.59;62.94
55315;BME280;41619;42.816;23.226;2023-06-10T08:06:31;95076.88;;;22.68;62.44
55315;BME280;41619;42.816;23.226;2023-06-10T08:08:56;95081.63;;;22.80;62.15
55315;BME280;41619;42.816;23.226;2023-06-10T08:11:22;95078.53;;;23.00;61.60
55315;BME280;41619;42.816;23.226;2023-06-10T08:13:47;95079.75;;;23.21;60.63
55315;BME280;41619;42.816;23.226;2023-06-10T08:16:13;95070.69;;;23.39;60.11
55315;BME280;41619;42.816;23.226;2023-06-10T08:18:38;95076.41;;;23.57;59.38
55315;BME280;41619;42.816;23.226;2023-06-10T08:21:03;95072.75;;;23.78;59.25
55315;BME280;41619;42.816;23.226;2023-06-10T08:23:29;95071.44;;;24.01;58.72
55315;BME280;41619;42.816;23.226;2023-06-10T08:25:54;95068.81;;;24.16;57.60
55315;BME280;41619;42.816;23.226;2023-06-10T08:28:20;95069.31;;;24.24;57.29
55315;BME280;41619;42.816;23.226;2023-06-10T08:30:45;95060.78;;;24.27;56.83
55315;BME280;41619;42.816;23.226;2023-06-10T08:33:10;95060.94;;;24.33;56.55
55315;BME280;41619;42.816;23.226;2023-06-10T08:35:36;95060.34;;;24.38;55.94
55315;BME280;41619;42.816;23.226;2023-06-10T08:38:01;95063.63;;;24.36;55.48
55315;BME280;41619;42.816;23.226;2023-06-10T08:40:27;95061.72;;;24.33;55.75
55315;BME280;41619;42.816;23.226;2023-06-10T08:43:10;95059.13;;;24.39;55.56
55315;BME280;41619;42.816;23.226;2023-06-10T08:45:42;95049.78;;;24.51;55.43
55315;BME280;41619;42.816;23.226;2023-06-10T08:48:10;95053.97;;;24.65;54.67
55315;BME280;41619;42.816;23.226;2023-06-10T08:50:37;95051.63;;;24.72;53.82
55315;BME280;41619;42.816;23.226;2023-06-10T08:53:05;95043.88;;;24.76;53.63
55315;BME280;41619;42.816;23.226;2023-06-10T08:55:36;95039.38;;;24.79;53.08
55315;BME280;41619;42.816;23.226;2023-06-10T08:58:03;95046.84;;;24.73;53.06
55315;BME280;41619;42.816;23.226;2023-06-10T09:00:30;95040.31;;;24.67;52.84
55315;BME280;41619;42.816;23.226;2023-06-10T09:02:57;95043.25;;;24.63;53.08
55315;BME280;41619;42.816;23.226;2023-06-10T09:05:23;95033.94;;;24.57;53.10
55315;BME280;41619;42.816;23.226;2023-06-10T09:07:48;95034.41;;;24.46;53.14
55315;BME280;41619;42.816;23.226;2023-06-10T09:10:14;95033.00;;;24.33;53.41
55315;BME280;41619;42.816;23.226;2023-06-10T09:12:46;95032.22;;;24.32;53.26
55315;BME280;41619;42.816;23.226;2023-06-10T09:15:11;95028.50;;;24.44;52.95
55315;BME280;41619;42.816;23.226;2023-06-10T09:17:40;95017.78;;;24.61;52.59
55315;BME280;41619;42.816;23.226;2023-06-10T09:20:07;95022.56;;;24.79;52.27
55315;BME280;41619;42.816;23.226;2023-06-10T09:22:33;95016.16;;;24.97;52.03
55315;BME280;41619;42.816;23.226;2023-06-10T09:25:06;95018.47;;;25.17;51.54
55315;BME280;41619;42.816;23.226;2023-06-10T09:27:44;95012.66;;;25.39;50.69
55315;BME280;41619;42.816;23.226;2023-06-10T09:30:27;95010.91;;;25.50;49.99
55315;BME280;41619;42.816;23.226;2023-06-10T09:32:54;95011.81;;;25.56;49.53
55315;BME280;41619;42.816;23.226;2023-06-10T09:35:24;95010.75;;;25.45;49.21
55315;BME280;41619;42.816;23.226;2023-06-10T09:37:54;95013.63;;;25.26;49.39
55315;BME280;41619;42.816;23.226;2023-06-10T09:40:20;95020.28;;;25.38;49.76
55315;BME280;41619;42.816;23.226;2023-06-10T09:42:46;95008.50;;;25.67;49.28
55315;BME280;41619;42.816;23.226;2023-06-10T09:45:18;95011.06;;;25.89;48.56
55315;BME280;41619;42.816;23.226;2023-06-10T09:47:51;95008.13;;;26.07;48.36
55315;BME280;41619;42.816;23.226;2023-06-10T09:50:17;95001.09;;;26.12;48.16
55315;BME280;41619;42.816;23.226;2023-06-10T09:52:42;95003.31;;;26.08;47.75
55315;BME280;41619;42.816;23.226;2023-06-10T09:55:08;95002.88;;;26.00;46.56
55315;BME280;41619;42.816;23.226;2023-06-10T09:57:35;94989.59;;;25.86;47.06
55315;BME280;41619;42.816;23.226;2023-06-10T10:00:09;94988.16;;;25.90;46.83
55315;BME280;41619;42.816;23.226;2023-06-10T10:05:17;94991.31;;;26.07;46.22
55315;BME280;41619;42.816;23.226;2023-06-10T10:07:44;94994.59;;;26.06;44.93
55315;BME280;41619;42.816;23.226;2023-06-10T10:10:11;94991.66;;;26.00;44.79
55315;BME280;41619;42.816;23.226;2023-06-10T10:12:41;94987.28;;;25.99;44.90
55315;BME280;41619;42.816;23.226;2023-06-10T10:15:08;94988.03;;;26.09;44.86
55315;BME280;41619;42.816;23.226;2023-06-10T10:17:38;94985.09;;;26.27;44.85
55315;BME280;41619;42.816;23.226;2023-06-10T10:20:07;94978.28;;;26.43;44.59
55315;BME280;41619;42.816;23.226;2023-06-10T10:22:40;94980.31;;;26.42;44.95
55315;BME280;41619;42.816;23.226;2023-06-10T10:25:12;94965.69;;;26.38;44.60
55315;BME280;41619;42.816;23.226;2023-06-10T10:27:51;94968.44;;;26.23;44.13
55315;BME280;41619;42.816;23.226;2023-06-10T10:30:20;94978.34;;;26.10;44.23
55315;BME280;41619;42.816;23.226;2023-06-10T10:33:04;94971.53;;;26.02;43.61
55315;BME280;41619;42.816;23.226;2023-06-10T10:35:30;94972.22;;;25.96;43.78
55315;BME280;41619;42.816;23.226;2023-06-10T10:37:56;94966.00;;;25.92;43.52
55315;BME280;41619;42.816;23.226;2023-06-10T10:40:22;94963.41;;;25.89;43.54
55315;BME280;41619;42.816;23.226;2023-06-10T10:42:49;94955.75;;;25.89;43.18
55315;BME280;41619;42.816;23.226;2023-06-10T10:45:15;94957.78;;;25.89;43.15
55315;BME280;41619;42.816;23.226;2023-06-10T10:47:42;94953.44;;;25.88;43.05
55315;BME280;41619;42.816;23.226;2023-06-10T10:50:19;94953.28;;;25.82;43.01
55315;BME280;41619;42.816;23.226;2023-06-10T10:52:56;94950.69;;;25.79;42.95
55315;BME280;41619;42.816;23.226;2023-06-10T10:55:23;94951.16;;;25.77;42.50
55315;BME280;41619;42.816;23.226;2023-06-10T10:58:07;94952.09;;;25.98;42.13
55315;BME280;41619;42.816;23.226;2023-06-10T11:00:41;94946.00;;;26.23;41.86
55315;BME280;41619;42.816;23.226;2023-06-10T11:03:13;94939.13;;;26.48;42.11
55315;BME280;41619;42.816;23.226;2023-06-10T11:05:42;94936.03;;;26.76;42.01
55315;BME280;41619;42.816;23.226;2023-06-10T11:08:11;94925.97;;;26.99;41.08
55315;BME280;41619;42.816;23.226;2023-06-10T11:10:38;94932.66;;;27.16;41.01
55315;BME280;41619;42.816;23.226;2023-06-10T11:13:13;94924.78;;;27.35;40.45
55315;BME280;41619;42.816;23.226;2023-06-10T11:15:50;94923.66;;;27.47;39.78
55315;BME280;41619;42.816;23.226;2023-06-10T11:18:29;94921.00;;;27.38;38.74
55315;BME280;41619;42.816;23.226;2023-06-10T11:21:02;94911.75;;;27.17;39.12
55315;BME280;41619;42.816;23.226;2023-06-10T11:26:09;94899.72;;;26.87;39.28
55315;BME280;41619;42.816;23.226;2023-06-10T11:28:35;94897.50;;;26.91;39.59
55315;BME280;41619;42.816;23.226;2023-06-10T11:31:00;94894.31;;;26.98;39.53
55315;BME280;41619;42.816;23.226;2023-06-10T11:33:26;94892.38;;;27.04;39.19
55315;BME280;41619;42.816;23.226;2023-06-10T11:35:51;94890.72;;;27.12;38.69
55315;BME280;41619;42.816;23.226;2023-06-10T11:38:17;94887.88;;;27.27;38.26
55315;BME280;41619;42.816;23.226;2023-06-10T11:40:50;94890.56;;;27.36;37.72
55315;BME280;41619;42.816;23.226;2023-06-10T11:43:19;94893.69;;;27.24;38.17
55315;BME280;41619;42.816;23.226;2023-06-10T11:45:45;94893.22;;;27.25;37.91
55315;BME280;41619;42.816;23.226;2023-06-10T11:48:12;94881.63;;;27.18;37.46
55315;BME280;41619;42.816;23.226;2023-06-10T11:50:38;94887.75;;;27.01;38.01
55315;BME280;41619;42.816;23.226;2023-06-10T11:53:04;94892.56;;;26.86;37.94
55315;BME280;41619;42.816;23.226;2023-06-10T11:55:46;94884.91;;;26.72;37.51
55315;BME280;41619;42.816;23.226;2023-06-10T11:58:20;94875.72;;;26.56;37.58
55315;BME280;41619;42.816;23.226;2023-06-10T12:00:54;94889.88;;;26.47;37.66
55315;BME280;41619;42.816;23.226;2023-06-10T12:03:23;94878.72;;;26.38;37.79
55315;BME280;41619;42.816;23.226;2023-06-10T12:06:02;94877.06;;;26.32;38.28
55315;BME280;41619;42.816;23.226;2023-06-10T12:08:28;94878.78;;;26.29;38.58
55315;BME280;41619;42.816;23.226;2023-06-10T12:10:55;94882.56;;;26.26;38.00
55315;BME280;41619;42.816;23.226;2023-06-10T12:13:21;94879.94;;;26.22;38.10
55315;BME280;41619;42.816;23.226;2023-06-10T12:15:46;94880.59;;;26.17;38.40
55315;BME280;41619;42.816;23.226;2023-06-10T12:20:43;94873.06;;;26.09;38.21
55315;BME280;41619;42.816;23.226;2023-06-10T12:23:09;94872.16;;;26.03;37.81
55315;BME280;41619;42.816;23.226;2023-06-10T12:25:35;94866.44;;;25.97;38.39
55315;BME280;41619;42.816;23.226;2023-06-10T12:28:02;94873.31;;;25.96;38.55
55315;BME280;41619;42.816;23.226;2023-06-10T12:30:28;94873.03;;;25.94;39.08
55315;BME280;41619;42.816;23.226;2023-06-10T12:32:54;94869.91;;;25.92;39.35
55315;BME280;41619;42.816;23.226;2023-06-10T12:35:25;94864.22;;;25.86;39.46
55315;BME280;41619;42.816;23.226;2023-06-10T12:38:03;94871.44;;;25.78;39.55
55315;BME280;41619;42.816;23.226;2023-06-10T12:40:34;94878.81;;;25.66;39.95
55315;BME280;41619;42.816;23.226;2023-06-10T12:43:02;94878.56;;;25.55;40.51
55315;BME280;41619;42.816;23.226;2023-06-10T12:45:29;94883.31;;;25.40;41.09
55315;BME280;41619;42.816;23.226;2023-06-10T12:48:08;94884.19;;;25.22;41.30
55315;BME280;41619;42.816;23.226;2023-06-10T12:50:41;94895.47;;;25.04;42.21
55315;BME280;41619;42.816;23.226;2023-06-10T12:53:07;94901.47;;;24.79;42.28
55315;BME280;41619;42.816;23.226;2023-06-10T12:55:33;94911.63;;;24.49;42.86
55315;BME280;41619;42.816;23.226;2023-06-10T12:57:59;94911.78;;;24.27;43.97
55315;BME280;41619;42.816;23.226;2023-06-10T13:00:25;94922.22;;;23.99;45.10